sensor_id;sensor_type;location;lat;lon;timestamp;pressure;altitude;pressure_sealevel;temperature;humidity
63568;BME280;49715;42.386;20.434;2022-10-16T00:01:30;97954.38;;;8.36;71.85
63568;BME280;49715;42.386;20.434;2022-10-16T00:03:58;97957.09;;;8.35;72.07
63568;BME280;49715;42.386;20.434;2022-10-16T00:06:26;97961.50;;;8.34;72.09
63568;BME280;49715;42.386;20.434;2022-10-16T00:08:52;97964.13;;;8.34;72.21
63568;BME280;49715;42.386;20.434;2022-10-16T00:11:25;97972.00;;;8.34;72.22
63568;BME280;49715;42.386;20.434;2022-10-16T00:13:56;97970.25;;;8.35;72.08
63568;BME280;49715;42.386;20.434;2022-10-16T00:16:23;97972.88;;;8.35;72.10
63568;BME280;49715;42.386;20.434;2022-10-16T00:18:49;97949.50;;;8.20;72.19
63568;BME280;49715;42.386;20.434;2022-10-16T00:21:22;97965.59;;;8.27;72.29
63568;BME280;49715;42.386;20.434;2022-10-16T00:24:09;97965.81;;;8.24;72.20
63568;BME280;49715;42.386;20.434;2022-10-16T00:26:36;97974.06;;;8.31;72.40
63568;BME280;49715;42.386;20.434;2022-10-16T00:29:04;97972.41;;;8.30;72.18
63568;BME280;49715;42.386;20.434;2022-10-16T00:31:31;97972.88;;;8.23;72.15
63568;BME280;49715;42.386;20.434;2022-10-16T00:33:58;97976.31;;;8.24;72.47
63568;BME280;49715;42.386;20.434;2022-10-16T00:36:25;97975.50;;;8.23;72.14
63568;BME280;49715;42.386;20.434;2022-10-16T00:38:56;97978.13;;;8.23;72.33
63568;BME280;49715;42.386;20.434;2022-10-16T00:41:25;97978.47;;;8.19;72.19
63568;BME280;49715;42.386;20.434;2022-10-16T00:44:03;97980.66;;;8.14;72.38
63568;BME280;49715;42.386;20.434;2022-10-16T00:46:50;97976.59;;;8.10;72.42
63568;BME280;49715;42.386;20.434;2022-10-16T00:49:16;97979.47;;;8.07;72.97
63568;BME280;49715;42.386;20.434;2022-10-16T00:51:48;97986.63;;;8.05;72.42
63568;BME280;49715;42.386;20.434;2022-10-16T00:54:19;97986.75;;;8.03;72.45
63568;BME280;49715;42.386;20.434;2022-10-16T00:56:47;97986.41;;;7.96;72.54
63568;BME280;49715;42.386;20.434;2022-10-16T00:59:16;97982.47;;;7.91;72.63
63568;BME280;49715;42.386;20.434;2022-10-16T01:01:44;97993.06;;;7.89;72.65
63568;BME280;49715;42.386;20.434;2022-10-16T01:04:11;97990.94;;;7.83;72.73
63568;BME280;49715;42.386;20.434;2022-10-16T01:09:39;97987.13;;;7.76;72.89
63568;BME280;49715;42.386;20.434;2022-10-16T01:12:26;97984.13;;;7.69;72.95
63568;BME280;49715;42.386;20.434;2022-10-16T01:15:03;97985.78;;;7.70;72.81
63568;BME280;49715;42.386;20.434;2022-10-16T01:17:48;97990.47;;;7.67;72.62
63568;BME280;49715;42.386;20.434;2022-10-16T01:20:23;97992.63;;;7.62;73.11
63568;BME280;49715;42.386;20.434;2022-10-16T01:23:15;97990.22;;;7.59;72.94
63568;BME280;49715;42.386;20.434;2022-10-16T01:31:15;97989.25;;;7.48;73.11
63568;BME280;49715;42.386;20.434;2022-10-16T01:33:47;97992.09;;;7.45;72.91
63568;BME280;49715;42.386;20.434;2022-10-16T01:36:25;97992.44;;;7.41;73.18
63568;BME280;49715;42.386;20.434;2022-10-16T01:38:54;97990.53;;;7.32;74.08
63568;BME280;49715;42.386;20.434;2022-10-16T01:41:34;97982.53;;;7.22;73.47
63568;BME280;49715;42.386;20.434;2022-10-16T01:44:07;97989.94;;;7.28;73.42
63568;BME280;49715;42.386;20.434;2022-10-16T01:46:37;97992.91;;;7.23;73.41
63568;BME280;49715;42.386;20.434;2022-10-16T01:49:06;97987.19;;;7.18;73.37
63568;BME280;49715;42.386;20.434;2022-10-16T01:51:35;98000.28;;;7.18;73.50
63568;BME280;49715;42.386;20.434;2022-10-16T01:54:02;98002.06;;;7.18;73.49
63568;BME280;49715;42.386;20.434;2022-10-16T01:56:31;97996.34;;;7.13;73.43
63568;BME280;49715;42.386;20.434;2022-10-16T01:59:19;98003.13;;;7.15;73.51
63568;BME280;49715;42.386;20.434;2022-10-16T02:01:52;98010.03;;;7.16;73.45
63568;BME280;49715;42.386;20.434;2022-10-16T02:04:28;97999.56;;;7.16;73.51
63568;BME280;49715;42.386;20.434;2022-10-16T02:06:55;98008.38;;;7.15;73.35
63568;BME280;49715;42.386;20.434;2022-10-16T02:09:22;98003.97;;;7.16;73.40
63568;BME280;49715;42.386;20.434;2022-10-16T02:11:52;98003.25;;;7.14;73.48
63568;BME280;49715;42.386;20.434;2022-10-16T02:14:21;98003.88;;;7.17;73.25
63568;BME280;49715;42.386;20.434;2022-10-16T02:16:50;98009.31;;;7.14;73.21
63568;BME280;49715;42.386;20.434;2022-10-16T02:19:17;98011.81;;;7.16;73.28
63568;BME280;49715;42.386;20.434;2022-10-16T02:21:50;98013.41;;;7.18;73.34
63568;BME280;49715;42.386;20.434;2022-10-16T02:24:28;98018.50;;;7.20;73.06
63568;BME280;49715;42.386;20.434;2022-10-16T02:29:51;98023.88;;;7.18;73.23
63568;BME280;49715;42.386;20.434;2022-10-16T02:32:24;98013.63;;;7.15;73.10
63568;BME280;49715;42.386;20.434;2022-10-16T02:34:52;98009.19;;;7.16;73.08
63568;BME280;49715;42.386;20.434;2022-10-16T02:37:19;98015.53;;;7.13;73.18
63568;BME280;49715;42.386;20.434;2022-10-16T02:39:46;98013.13;;;7.10;73.29
63568;BME280;49715;42.386;20.434;2022-10-16T02:42:13;98019.31;;;7.09;73.23
63568;BME280;49715;42.386;20.434;2022-10-16T02:44:40;98024.78;;;7.06;73.24
63568;BME280;49715;42.386;20.434;2022-10-16T02:47:07;98024.06;;;7.04;73.33
63568;BME280;49715;42.386;20.434;2022-10-16T02:49:33;98022.63;;;7.00;73.34
63568;BME280;49715;42.386;20.434;2022-10-16T02:51:59;98031.66;;;6.96;73.27
63568;BME280;49715;42.386;20.434;2022-10-16T02:54:26;98041.81;;;7.01;73.32
63568;BME280;49715;42.386;20.434;2022-10-16T02:56:52;98042.88;;;6.98;73.28
63568;BME280;49715;42.386;20.434;2022-10-16T02:59:18;98048.22;;;6.96;73.40
63568;BME280;49715;42.386;20.434;2022-10-16T03:01:45;98048.13;;;6.98;73.41
63568;BME280;49715;42.386;20.434;2022-10-16T03:04:11;98049.16;;;6.95;73.38
63568;BME280;49715;42.386;20.434;2022-10-16T03:06:38;98049.28;;;6.94;73.33
63568;BME280;49715;42.386;20.434;2022-10-16T03:09:04;98048.66;;;6.90;73.40
63568;BME280;49715;42.386;20.434;2022-10-16T03:11:31;98050.91;;;6.84;73.43
63568;BME280;49715;42.386;20.434;2022-10-16T03:13:57;98051.75;;;6.84;73.53
63568;BME280;49715;42.386;20.434;2022-10-16T03:16:23;98047.78;;;6.79;73.43
63568;BME280;49715;42.386;20.434;2022-10-16T03:18:50;98051.59;;;6.75;73.37
63568;BME280;49715;42.386;20.434;2022-10-16T03:21:16;98050.13;;;6.70;73.64
63568;BME280;49715;42.386;20.434;2022-10-16T03:23:43;98054.88;;;6.65;73.64
63568;BME280;49715;42.386;20.434;2022-10-16T03:26:09;98049.63;;;6.65;73.64
63568;BME280;49715;42.386;20.434;2022-10-16T03:28:35;98036.03;;;6.60;73.52
63568;BME280;49715;42.386;20.434;2022-10-16T03:31:02;98054.13;;;6.63;73.76
63568;BME280;49715;42.386;20.434;2022-10-16T03:33:28;98042.31;;;6.58;73.76
63568;BME280;49715;42.386;20.434;2022-10-16T03:35:55;98062.09;;;6.62;73.53
63568;BME280;49715;42.386;20.434;2022-10-16T03:38:21;98052.78;;;6.58;73.66
63568;BME280;49715;42.386;20.434;2022-10-16T03:40:48;98053.94;;;6.54;73.79
63568;BME280;49715;42.386;20.434;2022-10-16T03:43:14;98057.75;;;6.50;74.02
63568;BME280;49715;42.386;20.434;2022-10-16T03:45:41;98062.25;;;6.48;74.16
63568;BME280;49715;42.386;20.434;2022-10-16T03:48:07;98060.47;;;6.48;73.93
63568;BME280;49715;42.386;20.434;2022-10-16T03:50:34;98056.38;;;6.44;74.00
63568;BME280;49715;42.386;20.434;2022-10-16T03:53:00;98046.88;;;6.43;74.24
63568;BME280;49715;42.386;20.434;2022-10-16T03:55:27;98059.97;;;6.43;74.19
63568;BME280;49715;42.386;20.434;2022-10-16T03:57:53;98055.88;;;6.39;74.28
63568;BME280;49715;42.386;20.434;2022-10-16T04:00:19;98061.03;;;6.40;74.02
63568;BME280;49715;42.386;20.434;2022-10-16T04:02:46;98052.44;;;6.38;74.26
63568;BME280;49715;42.386;20.434;2022-10-16T04:05:12;98057.66;;;6.38;74.30
63568;BME280;49715;42.386;20.434;2022-10-16T04:07:38;98055.38;;;6.34;74.46
63568;BME280;49715;42.386;20.434;2022-10-16T04:10:05;98053.44;;;6.25;74.61
63568;BME280;49715;42.386;20.434;2022-10-16T04:12:31;98059.81;;;6.21;74.62
63568;BME280;49715;42.386;20.434;2022-10-16T04:14:58;98051.44;;;6.15;74.88
63568;BME280;49715;42.386;20.434;2022-10-16T04:17:24;98061.81;;;6.17;74.92
63568;BME280;49715;42.386;20.434;2022-10-16T04:19:51;98065.25;;;6.17;74.53
63568;BME280;49715;42.386;20.434;2022-10-16T04:22:17;98073.09;;;6.17;74.70
63568;BME280;49715;42.386;20.434;2022-10-16T04:24:44;98066.31;;;6.15;74.90
63568;BME280;49715;42.386;20.434;2022-10-16T04:27:10;98072.59;;;6.12;74.92
63568;BME280;49715;42.386;20.434;2022-10-16T04:29:36;98065.91;;;6.08;75.02
63568;BME280;49715;42.386;20.434;2022-10-16T04:32:03;98065.25;;;6.05;75.05
63568;BME280;49715;42.386;20.434;2022-10-16T04:34:29;98062.56;;;6.06;74.95
63568;BME280;49715;42.386;20.434;2022-10-16T04:36:55;98064.34;;;6.06;75.12
63568;BME280;49715;42.386;20.434;2022-10-16T04:39:22;98063.41;;;6.07;75.30
63568;BME280;49715;42.386;20.434;2022-10-16T04:41:48;98065.06;;;6.08;75.15
63568;BME280;49715;42.386;20.434;2022-10-16T04:44:14;98074.50;;;6.10;75.00
63568;BME280;49715;42.386;20.434;2022-10-16T04:46:41;98077.13;;;6.10;74.88
63568;BME280;49715;42.386;20.434;2022-10-16T04:49:07;98080.75;;;6.08;74.88
63568;BME280;49715;42.386;20.434;2022-10-16T04:51:33;98085.69;;;6.12;75.16
63568;BME280;49715;42.386;20.434;2022-10-16T04:54:00;98076.38;;;6.08;75.04
63568;BME280;49715;42.386;20.434;2022-10-16T04:56:26;98076.16;;;6.11;74.98
63568;BME280;49715;42.386;20.434;2022-10-16T04:58:52;98080.97;;;6.17;75.03
63568;BME280;49715;42.386;20.434;2022-10-16T05:01:19;98080.00;;;6.18;75.05
63568;BME280;49715;42.386;20.434;2022-10-16T05:03:45;98079.19;;;6.18;75.13
63568;BME280;49715;42.386;20.434;2022-10-16T05:06:11;98091.00;;;6.24;74.96
63568;BME280;49715;42.386;20.434;2022-10-16T05:08:38;98075.41;;;6.22;75.04
63568;BME280;49715;42.386;20.434;2022-10-16T05:11:04;98088.38;;;6.24;75.06
63568;BME280;49715;42.386;20.434;2022-10-16T05:13:30;98083.06;;;6.25;75.03
63568;BME280;49715;42.386;20.434;2022-10-16T05:15:57;98079.59;;;6.25;75.02
63568;BME280;49715;42.386;20.434;2022-10-16T05:18:23;98090.25;;;6.34;74.89
63568;BME280;49715;42.386;20.434;2022-10-16T05:20:49;98083.97;;;6.37;74.97
63568;BME280;49715;42.386;20.434;2022-10-16T05:23:16;98090.03;;;6.37;75.01
63568;BME280;49715;42.386;20.434;2022-10-16T05:25:42;98093.41;;;6.39;74.77
63568;BME280;49715;42.386;20.434;2022-10-16T05:28:08;98089.59;;;6.43;75.16
63568;BME280;49715;42.386;20.434;2022-10-16T05:30:37;98092.00;;;6.47;75.10
63568;BME280;49715;42.386;20.434;2022-10-16T05:33:03;98105.81;;;6.49;75.21
63568;BME280;49715;42.386;20.434;2022-10-16T05:35:30;98104.66;;;6.53;75.07
63568;BME280;49715;42.386;20.434;2022-10-16T05:37:56;98109.69;;;6.56;75.02
63568;BME280;49715;42.386;20.434;2022-10-16T05:40:23;98113.03;;;6.58;75.13
63568;BME280;49715;42.386;20.434;2022-10-16T05:42:49;98118.19;;;6.59;75.17
63568;BME280;49715;42.386;20.434;2022-10-16T05:45:15;98131.66;;;6.66;75.26
63568;BME280;49715;42.386;20.434;2022-10-16T05:47:42;98127.06;;;6.69;75.30
63568;BME280;49715;42.386;20.434;2022-10-16T05:50:08;98133.41;;;6.78;75.29
63568;BME280;49715;42.386;20.434;2022-10-16T05:52:35;98133.41;;;6.78;75.26
63568;BME280;49715;42.386;20.434;2022-10-16T05:55:01;98138.81;;;6.88;75.45
63568;BME280;49715;42.386;20.434;2022-10-16T05:57:28;98133.03;;;6.95;75.36
63568;BME280;49715;42.386;20.434;2022-10-16T05:59:54;98139.50;;;7.03;75.36
63568;BME280;49715;42.386;20.434;2022-10-16T06:02:21;98131.28;;;7.07;75.42
63568;BME280;49715;42.386;20.434;2022-10-16T06:04:47;98138.91;;;7.23;75.41
63568;BME280;49715;42.386;20.434;2022-10-16T06:07:14;98149.66;;;7.31;75.42
63568;BME280;49715;42.386;20.434;2022-10-16T06:09:40;98153.50;;;7.38;75.27
63568;BME280;49715;42.386;20.434;2022-10-16T06:12:06;98150.22;;;7.47;75.40
63568;BME280;49715;42.386;20.434;2022-10-16T06:14:33;98153.31;;;7.53;75.32
63568;BME280;49715;42.386;20.434;2022-10-16T06:16:59;98156.94;;;7.63;75.05
63568;BME280;49715;42.386;20.434;2022-10-16T06:19:26;98156.59;;;7.67;75.23
63568;BME280;49715;42.386;20.434;2022-10-16T06:21:52;98169.03;;;7.77;75.27
63568;BME280;49715;42.386;20.434;2022-10-16T06:24:19;98172.03;;;7.83;75.25
63568;BME280;49715;42.386;20.434;2022-10-16T06:26:45;98164.63;;;7.88;75.03
63568;BME280;49715;42.386;20.434;2022-10-16T06:29:12;98166.09;;;7.92;75.19
63568;BME280;49715;42.386;20.434;2022-10-16T06:31:38;98167.28;;;7.99;74.70
63568;BME280;49715;42.386;20.434;2022-10-16T06:34:04;98175.75;;;8.03;74.86
63568;BME280;49715;42.386;20.434;2022-10-16T06:36:35;98180.31;;;8.01;74.64
63568;BME280;49715;42.386;20.434;2022-10-16T06:39:02;98175.75;;;8.03;74.59
63568;BME280;49715;42.386;20.434;2022-10-16T06:41:28;98169.56;;;8.04;74.47
63568;BME280;49715;42.386;20.434;2022-10-16T06:43:56;98181.50;;;8.08;74.59
63568;BME280;49715;42.386;20.434;2022-10-16T06:46:23;98180.53;;;8.09;74.65
63568;BME280;49715;42.386;20.434;2022-10-16T06:48:50;98188.81;;;8.16;74.68
63568;BME280;49715;42.386;20.434;2022-10-16T06:51:19;98195.72;;;8.17;74.51
63568;BME280;49715;42.386;20.434;2022-10-16T06:53:48;98199.41;;;8.14;74.41
63568;BME280;49715;42.386;20.434;2022-10-16T06:56:26;98213.97;;;8.18;74.48
63568;BME280;49715;42.386;20.434;2022-10-16T06:58:53;98208.84;;;8.17;74.92
63568;BME280;49715;42.386;20.434;2022-10-16T07:01:22;98210.53;;;8.18;74.83
63568;BME280;49715;42.386;20.434;2022-10-16T07:03:50;98214.94;;;8.17;74.98
63568;BME280;49715;42.386;20.434;2022-10-16T07:06:20;98215.66;;;8.19;75.19
63568;BME280;49715;42.386;20.434;2022-10-16T07:08:47;98217.22;;;8.22;75.11
63568;BME280;49715;42.386;20.434;2022-10-16T07:11:14;98218.88;;;8.23;75.75
63568;BME280;49715;42.386;20.434;2022-10-16T07:13:42;98211.97;;;8.33;75.31
63568;BME280;49715;42.386;20.434;2022-10-16T07:16:12;98218.34;;;8.42;75.06
63568;BME280;49715;42.386;20.434;2022-10-16T07:18:38;98216.09;;;8.48;75.31
63568;BME280;49715;42.386;20.434;2022-10-16T07:21:07;98224.81;;;8.60;75.39
63568;BME280;49715;42.386;20.434;2022-10-16T07:23:35;98231.88;;;8.71;75.20
63568;BME280;49715;42.386;20.434;2022-10-16T07:26:02;98223.41;;;8.79;75.25
63568;BME280;49715;42.386;20.434;2022-10-16T07:28:30;98226.38;;;8.85;75.15
63568;BME280;49715;42.386;20.434;2022-10-16T07:31:06;98219.78;;;8.91;75.08
63568;BME280;49715;42.386;20.434;2022-10-16T07:33:34;98225.88;;;9.02;75.08
63568;BME280;49715;42.386;20.434;2022-10-16T07:36:01;98227.53;;;9.15;74.94
63568;BME280;49715;42.386;20.434;2022-10-16T07:38:28;98233.88;;;9.23;75.12
63568;BME280;49715;42.386;20.434;2022-10-16T07:40:59;98230.13;;;9.37;75.13
63568;BME280;49715;42.386;20.434;2022-10-16T07:43:26;98237.72;;;9.51;75.18
63568;BME280;49715;42.386;20.434;2022-10-16T07:45:53;98231.47;;;9.64;74.96
63568;BME280;49715;42.386;20.434;2022-10-16T07:48:22;98229.41;;;9.78;74.67
63568;BME280;49715;42.386;20.434;2022-10-16T07:50:49;98232.94;;;9.89;74.66
63568;BME280;49715;42.386;20.434;2022-10-16T07:53:15;98232.19;;;9.98;74.62
63568;BME280;49715;42.386;20.434;2022-10-16T07:55:42;98236.81;;;10.05;74.81
63568;BME280;49715;42.386;20.434;2022-10-16T07:58:09;98231.16;;;10.10;74.50
63568;BME280;49715;42.386;20.434;2022-10-16T08:00:36;98231.50;;;10.17;74.67
63568;BME280;49715;42.386;20.434;2022-10-16T08:03:03;98231.59;;;10.26;74.56
63568;BME280;49715;42.386;20.434;2022-10-16T08:05:31;98239.56;;;10.36;74.56
63568;BME280;49715;42.386;20.434;2022-10-16T08:07:58;98229.91;;;10.46;74.64
63568;BME280;49715;42.386;20.434;2022-10-16T08:10:26;98243.81;;;10.58;74.61
63568;BME280;49715;42.386;20.434;2022-10-16T08:12:53;98243.63;;;10.71;74.60
63568;BME280;49715;42.386;20.434;2022-10-16T08:15:20;98232.28;;;10.80;74.57
63568;BME280;49715;42.386;20.434;2022-10-16T08:18:02;98232.31;;;10.90;74.50
63568;BME280;49715;42.386;20.434;2022-10-16T08:20:30;98238.06;;;11.04;74.47
63568;BME280;49715;42.386;20.434;2022-10-16T08:22:57;98235.47;;;11.14;74.36
63568;BME280;49715;42.386;20.434;2022-10-16T08:25:28;98231.06;;;11.24;74.30
63568;BME280;49715;42.386;20.434;2022-10-16T08:27:54;98236.59;;;11.31;74.78
63568;BME280;49715;42.386;20.434;2022-10-16T08:30:23;98232.59;;;11.46;74.27
63568;BME280;49715;42.386;20.434;2022-10-16T08:32:50;98238.31;;;11.61;74.11
63568;BME280;49715;42.386;20.434;2022-10-16T08:35:16;98228.91;;;11.68;73.79
63568;BME280;49715;42.386;20.434;2022-10-16T08:37:43;98224.44;;;11.78;73.84
63568;BME280;49715;42.386;20.434;2022-10-16T08:40:24;98213.91;;;11.88;73.58
63568;BME280;49715;42.386;20.434;2022-10-16T08:48:15;98220.41;;;12.23;73.34
63568;BME280;49715;42.386;20.434;2022-10-16T08:50:44;98221.38;;;12.31;73.11
63568;BME280;49715;42.386;20.434;2022-10-16T08:53:19;98226.50;;;12.43;72.89
63568;BME280;49715;42.386;20.434;2022-10-16T08:55:50;98226.19;;;12.55;72.97
63568;BME280;49715;42.386;20.434;2022-10-16T08:58:22;98217.97;;;12.58;72.76
63568;BME280;49715;42.386;20.434;2022-10-16T09:00:54;98216.00;;;12.70;72.50
63568;BME280;49715;42.386;20.434;2022-10-16T09:06:39;98223.69;;;12.91;72.35
63568;BME280;49715;42.386;20.434;2022-10-16T09:12:20;98231.94;;;13.15;72.06
63568;BME280;49715;42.386;20.434;2022-10-16T09:20:12;98225.84;;;13.43;71.83
63568;BME280;49715;42.386;20.434;2022-10-16T09:22:40;98222.53;;;13.58;71.73
63568;BME280;49715;42.386;20.434;2022-10-16T09:25:13;98224.78;;;13.71;71.13
63568;BME280;49715;42.386;20.434;2022-10-16T09:27:42;98225.03;;;13.78;71.18
63568;BME280;49715;42.386;20.434;2022-10-16T09:30:20;98219.97;;;13.84;71.13
63568;BME280;49715;42.386;20.434;2022-10-16T09:32:48;98226.91;;;13.85;70.92
63568;BME280;49715;42.386;20.434;2022-10-16T09:35:22;98216.22;;;13.95;70.86
63568;BME280;49715;42.386;20.434;2022-10-16T09:37:54;98217.31;;;14.02;70.69
63568;BME280;49715;42.386;20.434;2022-10-16T09:40:30;98222.34;;;14.13;70.64
63568;BME280;49715;42.386;20.434;2022-10-16T09:43:26;98203.50;;;14.16;70.27
63568;BME280;49715;42.386;20.434;2022-10-16T09:45:59;98218.91;;;14.39;70.48
63568;BME280;49715;42.386;20.434;2022-10-16T09:48:33;98211.69;;;14.49;70.13
63568;BME280;49715;42.386;20.434;2022-10-16T09:51:04;98211.47;;;14.68;70.00
63568;BME280;49715;42.386;20.434;2022-10-16T09:53:43;98211.78;;;14.91;69.84
63568;BME280;49715;42.386;20.434;2022-10-16T09:56:20;98210.69;;;15.10;69.30
63568;BME280;49715;42.386;20.434;2022-10-16T09:58:52;98212.44;;;15.28;68.96
63568;BME280;49715;42.386;20.434;2022-10-16T10:01:19;98206.66;;;15.40;68.65
63568;BME280;49715;42.386;20.434;2022-10-16T10:03:47;98203.88;;;15.58;68.29
63568;BME280;49715;42.386;20.434;2022-10-16T10:06:27;98206.41;;;15.76;67.96
63568;BME280;49715;42.386;20.434;2022-10-16T10:09:21;98197.78;;;15.90;67.68
63568;BME280;49715;42.386;20.434;2022-10-16T10:12:01;98207.63;;;16.06;67.65
63568;BME280;49715;42.386;20.434;2022-10-16T10:17:10;98190.47;;;16.41;66.81
63568;BME280;49715;42.386;20.434;2022-10-16T10:22:25;98195.91;;;16.64;65.85
63568;BME280;49715;42.386;20.434;2022-10-16T10:27:32;98196.84;;;16.88;65.73
63568;BME280;49715;42.386;20.434;2022-10-16T10:30:11;98197.97;;;17.02;65.22
63568;BME280;49715;42.386;20.434;2022-10-16T10:35:27;98187.34;;;17.33;64.42
63568;BME280;49715;42.386;20.434;2022-10-16T10:38:30;98178.75;;;17.45;63.52
63568;BME280;49715;42.386;20.434;2022-10-16T10:44:07;98176.94;;;17.77;63.43
63568;BME280;49715;42.386;20.434;2022-10-16T10:46:51;98168.50;;;17.88;63.52
63568;BME280;49715;42.386;20.434;2022-10-16T10:58:28;98154.25;;;18.34;62.07
63568;BME280;49715;42.386;20.434;2022-10-16T11:01:11;98153.72;;;18.38;61.83
63568;BME280;49715;42.386;20.434;2022-10-16T11:09:17;98145.19;;;18.87;61.02
63568;BME280;49715;42.386;20.434;2022-10-16T11:11:56;98145.69;;;19.12;60.35
63568;BME280;49715;42.386;20.434;2022-10-16T11:14:26;98139.59;;;19.33;60.21
63568;BME280;49715;42.386;20.434;2022-10-16T11:17:04;98131.69;;;19.46;59.79
63568;BME280;49715;42.386;20.434;2022-10-16T11:19:41;98132.78;;;19.67;59.31
63568;BME280;49715;42.386;20.434;2022-10-16T11:22:24;98126.31;;;19.83;59.10
63568;BME280;49715;42.386;20.434;2022-10-16T11:25:04;98131.06;;;20.09;58.72
63568;BME280;49715;42.386;20.434;2022-10-16T11:30:30;98124.91;;;20.43;58.22
63568;BME280;49715;42.386;20.434;2022-10-16T11:36:38;98117.91;;;20.70;57.57
63568;BME280;49715;42.386;20.434;2022-10-16T11:39:11;98113.03;;;20.87;56.65
63568;BME280;49715;42.386;20.434;2022-10-16T11:47:45;98109.63;;;21.13;54.39
63568;BME280;49715;42.386;20.434;2022-10-16T11:50:22;98111.97;;;21.29;55.96
63568;BME280;49715;42.386;20.434;2022-10-16T11:55:43;98110.38;;;21.61;53.88
63568;BME280;49715;42.386;20.434;2022-10-16T11:58:30;98100.50;;;21.68;52.93
63568;BME280;49715;42.386;20.434;2022-10-16T12:09:00;98097.25;;;22.13;54.10
63568;BME280;49715;42.386;20.434;2022-10-16T12:16:57;98098.25;;;22.31;53.55
63568;BME280;49715;42.386;20.434;2022-10-16T12:19:28;98095.97;;;22.42;52.95
63568;BME280;49715;42.386;20.434;2022-10-16T12:22:02;98103.81;;;22.50;51.70
63568;BME280;49715;42.386;20.434;2022-10-16T12:24:37;98094.03;;;22.62;52.09
63568;BME280;49715;42.386;20.434;2022-10-16T12:27:17;98093.19;;;22.75;52.14
63568;BME280;49715;42.386;20.434;2022-10-16T12:29:46;98086.91;;;22.87;52.23
63568;BME280;49715;42.386;20.434;2022-10-16T12:32:27;98090.41;;;23.01;51.03
63568;BME280;49715;42.386;20.434;2022-10-16T12:34:54;98083.94;;;23.16;51.63
63568;BME280;49715;42.386;20.434;2022-10-16T12:37:26;98086.31;;;23.30;51.14
63568;BME280;49715;42.386;20.434;2022-10-16T12:39:54;98089.41;;;23.34;50.80
63568;BME280;49715;42.386;20.434;2022-10-16T12:42:32;98075.97;;;23.34;50.39
63568;BME280;49715;42.386;20.434;2022-10-16T12:45:00;98077.31;;;23.50;50.80
63568;BME280;49715;42.386;20.434;2022-10-16T12:47:47;98076.81;;;23.66;50.22
63568;BME280;49715;42.386;20.434;2022-10-16T12:52:49;98068.38;;;23.87;49.59
63568;BME280;49715;42.386;20.434;2022-10-16T12:55:18;98063.69;;;24.01;49.50
63568;BME280;49715;42.386;20.434;2022-10-16T13:03:04;98076.00;;;24.34;47.14
63568;BME280;49715;42.386;20.434;2022-10-16T13:06:17;98079.09;;;24.37;47.40
63568;BME280;49715;42.386;20.434;2022-10-16T13:14:29;98087.44;;;24.29;47.47
63568;BME280;49715;42.386;20.434;2022-10-16T13:17:08;98085.66;;;24.23;48.54
63568;BME280;49715;42.386;20.434;2022-10-16T13:27:59;98092.81;;;24.36;47.81
63568;BME280;49715;42.386;20.434;2022-10-16T13:30:52;98083.22;;;24.40;47.06
63568;BME280;49715;42.386;20.434;2022-10-16T13:33:33;98085.06;;;24.21;46.61
63568;BME280;49715;42.386;20.434;2022-10-16T13:36:02;98074.47;;;24.20;47.38
63568;BME280;49715;42.386;20.434;2022-10-16T13:38:36;98075.47;;;24.25;46.67
63568;BME280;49715;42.386;20.434;2022-10-16T13:41:13;98076.22;;;24.32;45.81
63568;BME280;49715;42.386;20.434;2022-10-16T13:43:43;98082.84;;;24.36;46.79
63568;BME280;49715;42.386;20.434;2022-10-16T13:46:19;98077.16;;;24.45;46.25
63568;BME280;49715;42.386;20.434;2022-10-16T13:49:04;98083.09;;;24.53;45.67
63568;BME280;49715;42.386;20.434;2022-10-16T13:51:31;98086.75;;;24.59;46.37
63568;BME280;49715;42.386;20.434;2022-10-16T13:53:59;98081.97;;;24.61;46.49
63568;BME280;49715;42.386;20.434;2022-10-16T13:56:28;98077.63;;;24.60;46.30
63568;BME280;49715;42.386;20.434;2022-10-16T13:59:05;98071.19;;;24.61;45.54
63568;BME280;49715;42.386;20.434;2022-10-16T14:01:41;98079.72;;;24.58;45.56
63568;BME280;49715;42.386;20.434;2022-10-16T14:04:11;98073.66;;;24.44;45.79
63568;BME280;49715;42.386;20.434;2022-10-16T14:06:44;98080.31;;;24.42;45.53
63568;BME280;49715;42.386;20.434;2022-10-16T14:09:29;98082.63;;;24.38;44.95
63568;BME280;49715;42.386;20.434;2022-10-16T14:12:00;98076.06;;;24.27;45.61
63568;BME280;49715;42.386;20.434;2022-10-16T14:14:34;98080.03;;;24.25;45.44
63568;BME280;49715;42.386;20.434;2022-10-16T14:17:02;98082.94;;;24.23;45.59
63568;BME280;49715;42.386;20.434;2022-10-16T14:19:30;98076.59;;;24.18;45.43
63568;BME280;49715;42.386;20.434;2022-10-16T14:21:58;98085.31;;;24.13;45.46
63568;BME280;49715;42.386;20.434;2022-10-16T14:24:33;98085.31;;;24.13;45.10
63568;BME280;49715;42.386;20.434;2022-10-16T14:27:01;98085.75;;;24.10;45.40
63568;BME280;49715;42.386;20.434;2022-10-16T14:29:29;98091.81;;;24.05;45.29
63568;BME280;49715;42.386;20.434;2022-10-16T14:32:01;98085.91;;;23.97;44.99
63568;BME280;49715;42.386;20.434;2022-10-16T14:34:29;98084.44;;;23.94;45.20
63568;BME280;49715;42.386;20.434;2022-10-16T14:37:00;98077.09;;;23.83;45.04
63568;BME280;49715;42.386;20.434;2022-10-16T14:39:30;98083.06;;;23.85;45.11
63568;BME280;49715;42.386;20.434;2022-10-16T14:41:57;98089.13;;;23.80;45.40
63568;BME280;49715;42.386;20.434;2022-10-16T14:44:33;98091.22;;;23.78;44.89
63568;BME280;49715;42.386;20.434;2022-10-16T14:47:08;98088.38;;;23.67;45.29
63568;BME280;49715;42.386;20.434;2022-10-16T14:49:36;98096.38;;;23.48;45.26
63568;BME280;49715;42.386;20.434;2022-10-16T14:52:08;98094.22;;;23.25;45.24
63568;BME280;49715;42.386;20.434;2022-10-16T14:54:36;98098.69;;;23.00;45.35
63568;BME280;49715;42.386;20.434;2022-10-16T14:57:02;98101.66;;;22.72;45.17
63568;BME280;49715;42.386;20.434;2022-10-16T14:59:35;98108.94;;;22.51;45.20